Stonybrook, Pennsylvania
Current Conditions -  °F | °C
As of 3:53 PM on Saturday 22 Nov 2014 (Local Time) from KTHV Reporting Station
Overcast Overcast  
Wind Chill: 43°   Ceiling: 6000
Heat Index: 43°   Visibility: 10mi
Dew Point: 15°   Wind: 3mph
Humidity: 32%   Direction: 230°SW
Pressure: 30.27"   Gusts: NA
Location:  39.9768°N, 76.6853°W
Report Text: KTHV 222053Z AUTO 23003KT 10SM BKN060 OVC075 06/M09 A3027 RMK AO2 SLP259 T00611094 56022
Loading
Personal Weather Stations






























Interactive Weather Map New forecast layout! Learn more

10-Day Weather Forecast

Advertisements
Track Severe Weather on mobile